Time,TemperatureF,DewpointF,PressureIn,WindDirection,WindDirectionDegrees,WindSpeedMPH,WindSpeedGustMPH,Humidity,HourlyPrecipIn,Conditions,Clouds,dailyrainin,SoftwareType,DateUTC
2013-07-17 00:01:00,70.8,31.1,29.99,SSW,192,6.9,6.9,23,0.00,CLR,,0.00,WeatherDisplay:10.37,2013-07-17 07:01:00,
2013-07-17 00:06:00,70.2,30.6,29.99,SSW,192,3.5,3.5,23,0.00,CLR,,0.00,WeatherDisplay:10.37,2013-07-17 07:06:00,
2013-07-17 00:11:00,69.6,31.2,29.99,SSW,192,3.5,3.5,24,0.00,CLR,,0.00,WeatherDisplay:10.37,2013-07-17 07:11:00,
2013-07-17 00:16:00,69.2,30.8,29.99,SSW,192,2.3,2.3,24,0.00,CLR,,0.00,WeatherDisplay:10.37,2013-07-17 07:16:00,
2013-07-17 00:21:00,69.1,30.8,29.99,SSW,192,2.3,2.3,24,0.00,CLR,,0.00,WeatherDisplay:10.37,2013-07-17 07:21:00,
2013-07-17 00:26:00,69.2,30.8,29.99,SSW,192,2.3,0.0,24,0.00,CLR,,0.00,WeatherDisplay:10.37,2013-07-17 07:26:00,
2013-07-17 00:31:00,69.4,31.0,29.99,SSW,192,3.5,3.5,24,0.00,CLR,,0.00,WeatherDisplay:10.37,2013-07-17 07:31:00,
2013-07-17 00:36:00,69.8,31.4,29.99,SSW,192,3.5,3.5,24,0.00,CLR,,0.00,WeatherDisplay:10.37,2013-07-17 07:36:00,
2013-07-17 00:41:00,69.8,31.4,29.99,SSW,192,2.3,0.0,24,0.00,CLR,,0.00,WeatherDisplay:10.37,2013-07-17 07:41:00,
2013-07-17 00:46:00,69.6,31.2,29.99,SSW,192,0.0,0.0,24,0.00,CLR,,0.00,WeatherDisplay:10.37,2013-07-17 07:46:00,
2013-07-17 00:51:00,69.3,30.9,29.99,SSW,192,0.0,0.0,24,0.00,CLR,,0.00,WeatherDisplay:10.37,2013-07-17 07:51:00,
2013-07-17 00:56:00,69.2,30.8,29.99,SSW,192,0.0,0.0,24,0.00,CLR,,0.00,WeatherDisplay:10.37,2013-07-17 07:56:00,
2013-07-17 01:01:00,69.2,31.9,29.99,SSW,192,0.0,0.0,25,0.00,CLR,,0.00,WeatherDisplay:10.37,2013-07-17 08:01:00,
2013-07-17 01:06:00,69.2,31.9,29.99,SSW,192,3.5,0.0,25,0.00,CLR,,0.00,WeatherDisplay:10.37,2013-07-17 08:06:00,
2013-07-17 01:11:00,69.3,32.9,29.99,SSW,192,4.6,4.6,26,0.00,CLR,,0.00,WeatherDisplay:10.37,2013-07-17 08:11:00,
2013-07-17 01:16:00,69.5,34.0,29.99,SSW,192,3.5,3.5,27,0.00,CLR,,0.00,WeatherDisplay:10.37,2013-07-17 08:16:00,
2013-07-17 01:21:00,69.4,33.9,29.99,SSW,192,0.0,0.0,27,0.00,CLR,,0.00,WeatherDisplay:10.37,2013-07-17 08:21:00,
2013-07-17 01:26:00,69.2,34.7,29.99,SSW,192,0.0,0.0,28,0.00,CLR,,0.00,WeatherDisplay:10.37,2013-07-17 08:26:00,
2013-07-17 01:31:00,69.0,35.4,29.99,SSW,192,0.0,0.0,29,0.00,CLR,,0.00,WeatherDisplay:10.37,2013-07-17 08:31:00,
2013-07-17 01:36:00,68.8,36.9,30.00,SSW,192,0.0,0.0,31,0.00,CLR,,0.00,WeatherDisplay:10.37,2013-07-17 08:36:00,
2013-07-17 01:41:00,68.6,36.7,29.99,SSW,192,4.0,4.0,31,0.00,CLR,,0.00,WeatherDisplay:10.37,2013-07-17 08:41:00,
2013-07-17 01:46:00,68.1,36.3,30.00,SSW,192,3.5,3.5,31,0.00,CLR,,0.00,WeatherDisplay:10.37,2013-07-17 08:46:00,
2013-07-17 01:51:00,67.3,35.6,30.00,SSW,192,4.0,4.0,31,0.00,CLR,,0.00,WeatherDisplay:10.37,2013-07-17 08:51:00,
2013-07-17 01:56:00,66.1,35.4,30.00,SSW,192,3.5,3.5,32,0.00,CLR,,0.00,WeatherDisplay:10.37,2013-07-17 08:56:00,
2013-07-17 02:01:00,65.3,35.4,30.00,SSW,192,2.3,2.3,33,0.00,CLR,,0.00,WeatherDisplay:10.37,2013-07-17 09:01:00,
2013-07-17 02:06:00,64.8,35.0,30.00,SSW,192,3.5,3.5,33,0.00,CLR,,0.00,WeatherDisplay:10.37,2013-07-17 09:06:00,
2013-07-17 02:11:00,64.8,35.8,30.00,SSW,192,3.5,3.5,34,0.00,CLR,,0.00,WeatherDisplay:10.37,2013-07-17 09:11:00,
2013-07-17 02:16:00,65.2,36.1,30.00,SSW,192,3.5,3.5,34,0.00,CLR,,0.00,WeatherDisplay:10.37,2013-07-17 09:16:00,
2013-07-17 02:21:00,65.7,36.5,30.00,SSW,192,4.6,4.6,34,0.00,CLR,,0.00,WeatherDisplay:10.37,2013-07-17 09:21:00,
2013-07-17 02:26:00,66.0,37.5,30.00,SSW,192,4.6,4.6,35,0.00,CLR,,0.00,WeatherDisplay:10.37,2013-07-17 09:26:00,
2013-07-17 02:31:00,66.6,38.8,30.00,SSW,192,4.6,4.6,36,0.00,CLR,,0.00,WeatherDisplay:10.37,2013-07-17 09:31:00,
2013-07-17 02:36:00,67.2,40.0,30.00,SSW,192,6.0,6.0,37,0.00,CLR,,0.00,WeatherDisplay:10.37,2013-07-17 09:36:00,
2013-07-17 02:41:00,67.4,40.2,30.00,SSW,192,3.5,3.5,37,0.00,CLR,,0.00,WeatherDisplay:10.37,2013-07-17 09:41:00,
2013-07-17 02:46:00,67.4,40.9,30.00,SSW,192,3.5,3.5,38,0.00,CLR,,0.00,WeatherDisplay:10.37,2013-07-17 09:46:00,
2013-07-17 02:51:00,67.5,42.3,30.00,SSW,192,4.6,4.6,40,0.00,CLR,,0.00,WeatherDisplay:10.37,2013-07-17 09:51:00,
2013-07-17 02:56:00,67.4,42.9,30.00,SSW,192,4.0,4.0,41,0.00,CLR,,0.00,WeatherDisplay:10.37,2013-07-17 09:56:00,
2013-07-17 03:01:00,67.0,43.1,30.00,SSW,192,3.5,3.5,42,0.00,CLR,,0.00,WeatherDisplay:10.37,2013-07-17 10:01:00,
2013-07-17 03:06:00,67.0,43.1,30.00,SSW,192,4.6,4.6,42,0.00,CLR,,0.00,WeatherDisplay:10.37,2013-07-17 10:06:00,
2013-07-17 03:11:00,67.0,43.1,30.00,SSW,192,4.6,4.6,42,0.00,CLR,,0.00,WeatherDisplay:10.37,2013-07-17 10:11:00,
2013-07-17 03:16:00,67.1,43.2,30.00,SSW,192,5.0,5.0,42,0.00,CLR,,0.00,WeatherDisplay:10.37,2013-07-17 10:16:00,
2013-07-17 03:21:00,67.0,43.1,30.00,SSW,192,6.9,6.9,42,0.00,CLR,,0.00,WeatherDisplay:10.37,2013-07-17 10:21:00,
2013-07-17 03:26:00,66.8,44.2,30.00,SSW,192,4.6,4.6,44,0.00,CLR,,0.00,WeatherDisplay:10.37,2013-07-17 10:26:00,
2013-07-17 03:31:00,66.6,44.6,30.00,SSW,192,4.6,4.6,45,0.00,CLR,,0.00,WeatherDisplay:10.37,2013-07-17 10:31:00,
2013-07-17 03:36:00,66.5,44.5,30.00,SSW,192,3.5,3.5,45,0.00,CLR,,0.00,WeatherDisplay:10.37,2013-07-17 10:36:00,
2013-07-17 03:41:00,66.5,45.1,30.00,SSW,192,5.0,5.0,46,0.00,CLR,,0.00,WeatherDisplay:10.37,2013-07-17 10:41:00,
2013-07-17 03:46:00,66.3,44.9,30.00,SSW,192,6.0,6.0,46,0.00,CLR,,0.00,WeatherDisplay:10.37,2013-07-17 10:46:00,
2013-07-17 03:51:00,66.1,45.3,30.00,SSW,192,4.6,4.6,47,0.00,CLR,,0.00,WeatherDisplay:10.37,2013-07-17 10:51:00,
2013-07-17 03:56:00,65.9,45.6,30.00,SSW,192,3.5,3.5,48,0.00,CLR,,0.00,WeatherDisplay:10.37,2013-07-17 10:56:00,
2013-07-17 04:01:00,66.0,45.7,30.00,SSW,192,4.0,4.0,48,0.00,CLR,,0.00,WeatherDisplay:10.37,2013-07-17 11:01:00,
2013-07-17 04:06:00,66.0,45.7,30.00,SSW,192,6.0,6.0,48,0.00,CLR,,0.00,WeatherDisplay:10.37,2013-07-17 11:06:00,
2013-07-17 04:11:00,65.8,45.6,30.00,SSW,192,3.5,3.5,48,0.00,CLR,,0.00,WeatherDisplay:10.37,2013-07-17 11:11:00,
2013-07-17 04:16:00,65.9,46.2,30.00,SSW,192,4.6,4.6,49,0.00,CLR,,0.00,WeatherDisplay:10.37,2013-07-17 11:16:00,
2013-07-17 04:21:00,66.1,45.8,30.00,SSW,192,4.6,4.6,48,0.00,CLR,,0.00,WeatherDisplay:10.37,2013-07-17 11:21:00,
2013-07-17 04:26:00,66.2,45.9,30.00,SSW,192,3.5,3.5,48,0.00,CLR,,0.00,WeatherDisplay:10.37,2013-07-17 11:26:00,
2013-07-17 04:31:00,66.1,45.8,30.00,SSW,192,4.0,4.0,48,0.00,CLR,,0.00,WeatherDisplay:10.37,2013-07-17 11:31:00,
2013-07-17 04:36:00,66.0,46.3,30.00,SSW,192,5.0,5.0,49,0.00,CLR,,0.00,WeatherDisplay:10.37,2013-07-17 11:36:00,
2013-07-17 04:41:00,66.0,46.3,30.00,SSW,192,5.8,5.8,49,0.00,CLR,,0.00,WeatherDisplay:10.37,2013-07-17 11:41:00,
2013-07-17 04:46:00,66.0,46.3,30.00,SSW,192,5.0,5.0,49,0.00,CLR,,0.00,WeatherDisplay:10.37,2013-07-17 11:46:00,
2013-07-17 04:51:00,66.0,46.3,30.00,SSW,192,6.0,6.0,49,0.00,CLR,,0.00,WeatherDisplay:10.37,2013-07-17 11:51:00,
2013-07-17 04:56:00,65.8,46.1,30.00,SSW,192,5.0,5.0,49,0.00,CLR,,0.00,WeatherDisplay:10.37,2013-07-17 11:56:00,
2013-07-17 05:01:00,65.5,45.8,30.00,SSW,192,5.8,5.8,49,0.00,CLR,,0.00,WeatherDisplay:10.37,2013-07-17 12:01:00,
2013-07-17 05:06:00,65.4,45.7,30.01,SSW,192,5.0,5.0,49,0.00,CLR,,0.00,WeatherDisplay:10.37,2013-07-17 12:06:00,
2013-07-17 05:11:00,65.5,45.3,30.01,SSW,192,4.6,4.6,48,0.00,CLR,,0.00,WeatherDisplay:10.37,2013-07-17 12:11:00,
2013-07-17 05:16:00,65.6,45.4,30.01,SSW,192,4.6,4.6,48,0.00,CLR,,0.00,WeatherDisplay:10.37,2013-07-17 12:16:00,
2013-07-17 05:21:00,65.7,45.5,30.01,SSW,192,4.6,4.6,48,0.00,CLR,,0.00,WeatherDisplay:10.37,2013-07-17 12:21:00,
2013-07-17 05:26:00,65.6,45.4,30.01,SSW,192,4.6,4.6,48,0.00,CLR,,0.00,WeatherDisplay:10.37,2013-07-17 12:26:00,
2013-07-17 05:31:00,65.6,45.4,30.01,SSW,192,6.9,6.9,48,0.00,CLR,,0.00,WeatherDisplay:10.37,2013-07-17 12:31:00,
2013-07-17 05:36:00,65.9,45.1,30.01,SSW,192,5.8,5.8,47,0.00,CLR,,0.00,WeatherDisplay:10.37,2013-07-17 12:36:00,
2013-07-17 05:41:00,66.0,44.6,30.01,SSW,192,4.6,4.6,46,0.00,CLR,,0.00,WeatherDisplay:10.37,2013-07-17 12:41:00,
2013-07-17 05:46:00,66.1,44.7,30.02,SSW,192,5.0,5.0,46,0.00,CLR,,0.00,WeatherDisplay:10.37,2013-07-17 12:46:00,
2013-07-17 05:51:00,66.5,45.1,30.02,SSW,192,5.8,5.8,46,0.00,CLR,,0.00,WeatherDisplay:10.37,2013-07-17 12:51:00,
2013-07-17 05:56:00,66.3,44.9,30.02,SSW,192,4.0,4.4,46,0.00,CLR,,0.00,WeatherDisplay:10.37,2013-07-17 12:56:00,
2013-07-17 06:01:00,66.4,45.0,30.03,SSW,192,5.8,5.8,46,0.00,CLR,,0.00,WeatherDisplay:10.37,2013-07-17 13:01:00,
2013-07-17 06:06:00,66.8,45.3,30.03,SSW,192,5.8,5.8,46,0.00,CLR,,0.00,WeatherDisplay:10.37,2013-07-17 13:06:00,
2013-07-17 06:11:00,66.9,45.4,30.03,SSW,192,5.8,5.8,46,0.00,CLR,,0.00,WeatherDisplay:10.37,2013-07-17 13:11:00,
2013-07-17 06:16:00,67.1,45.6,30.03,SSW,192,5.0,5.0,46,0.00,CLR,,0.00,WeatherDisplay:10.37,2013-07-17 13:16:00,
2013-07-17 06:21:00,67.1,45.6,30.03,SSW,192,5.8,5.8,46,0.00,CLR,,0.00,WeatherDisplay:10.37,2013-07-17 13:21:00,
2013-07-17 06:26:00,67.3,45.2,30.03,SSW,192,9.0,9.0,45,0.00,CLR,,0.00,WeatherDisplay:10.37,2013-07-17 13:26:00,
2013-07-17 06:29:00,67.3,45.2,30.03,SSW,192,6.9,6.9,45,0.00,CLR,,0.00,WeatherDisplay:10.37,2013-07-17 13:29:00,
2013-07-17 06:34:00,67.2,45.1,30.03,SSW,192,9.2,9.2,45,0.00,CLR,,0.00,WeatherDisplay:10.37,2013-07-17 13:34:00,
2013-07-17 06:39:00,67.9,44.6,30.03,SSW,192,10.4,10.4,43,0.00,CLR,,0.00,WeatherDisplay:10.37,2013-07-17 13:39:00,
2013-07-17 06:44:00,68.2,44.8,30.04,SSW,192,9.2,9.2,43,0.00,CLR,,0.00,WeatherDisplay:10.37,2013-07-17 13:44:00,
2013-07-17 06:49:00,68.1,44.7,30.04,SSW,192,6.9,6.9,43,0.00,CLR,,0.00,WeatherDisplay:10.37,2013-07-17 13:49:00,
2013-07-17 06:54:00,68.4,44.4,30.04,SSW,192,7.0,7.0,42,0.00,CLR,,0.00,WeatherDisplay:10.37,2013-07-17 13:54:00,
2013-07-17 06:59:00,68.5,44.5,30.04,SSW,192,6.9,6.9,42,0.00,CLR,,0.00,WeatherDisplay:10.37,2013-07-17 13:59:00,
2013-07-17 07:04:00,68.7,44.7,30.04,SSW,192,9.2,9.2,42,0.00,CLR,,0.00,WeatherDisplay:10.37,2013-07-17 14:04:00,
2013-07-17 07:09:00,69.1,45.0,30.04,SSW,192,8.1,8.1,42,0.00,CLR,,0.00,WeatherDisplay:10.37,2013-07-17 14:09:00,
2013-07-17 07:14:00,69.4,44.7,30.04,SSW,192,10.4,10.4,41,0.00,CLR,,0.00,WeatherDisplay:10.37,2013-07-17 14:14:00,
2013-07-17 07:19:00,69.7,44.9,30.04,SSW,192,6.9,6.9,41,0.00,CLR,,0.00,WeatherDisplay:10.37,2013-07-17 14:19:00,
2013-07-17 07:24:00,70.0,44.6,30.05,SSW,192,9.2,9.2,40,0.00,CLR,,0.00,WeatherDisplay:10.37,2013-07-17 14:24:00,
2013-07-17 07:29:00,70.5,45.0,30.05,SSW,192,9.2,9.2,40,0.00,CLR,,0.00,WeatherDisplay:10.37,2013-07-17 14:29:00,
2013-07-17 07:34:00,71.0,44.8,30.05,SSW,192,8.1,8.1,39,0.00,CLR,,0.00,WeatherDisplay:10.37,2013-07-17 14:34:00,
2013-07-17 07:39:00,71.3,45.1,30.05,SSW,192,4.6,4.6,39,0.00,CLR,,0.00,WeatherDisplay:10.37,2013-07-17 14:39:00,
2013-07-17 07:44:00,71.7,44.7,30.05,SSW,192,5.8,5.8,38,0.00,CLR,,0.00,WeatherDisplay:10.37,2013-07-17 14:44:00,
2013-07-17 07:49:00,71.8,44.8,30.05,SSW,192,6.0,6.0,38,0.00,CLR,,0.00,WeatherDisplay:10.37,2013-07-17 14:49:00,
2013-07-17 07:54:00,72.0,45.0,30.05,SSW,192,6.9,6.9,38,0.00,CLR,,0.00,WeatherDisplay:10.37,2013-07-17 14:54:00,
2013-07-17 07:59:00,72.6,44.8,30.05,SSW,192,5.8,5.8,37,0.00,CLR,,0.00,WeatherDisplay:10.37,2013-07-17 14:59:00,
2013-07-17 08:04:00,73.2,44.6,30.05,SSW,192,4.6,4.6,36,0.00,CLR,,0.00,WeatherDisplay:10.37,2013-07-17 15:04:00,
2013-07-17 08:09:00,73.8,45.2,30.05,SSW,192,6.9,6.9,36,0.00,CLR,,0.00,WeatherDisplay:10.37,2013-07-17 15:09:00,
2013-07-17 08:14:00,74.6,45.1,30.05,SSW,192,4.6,4.6,35,0.00,CLR,,0.00,WeatherDisplay:10.37,2013-07-17 15:14:00,
2013-07-17 08:19:00,75.1,44.8,30.05,SSW,192,4.6,4.6,34,0.00,CLR,,0.00,WeatherDisplay:10.37,2013-07-17 15:19:00,
2013-07-17 08:24:00,75.4,45.1,30.05,SSW,192,4.6,4.6,34,0.00,CLR,,0.00,WeatherDisplay:10.37,2013-07-17 15:24:00,
2013-07-17 08:29:00,75.8,45.4,30.06,SSW,192,0.0,0.0,34,0.00,CLR,,0.00,WeatherDisplay:10.37,2013-07-17 15:29:00,
2013-07-17 08:34:00,76.2,45.0,30.05,SSW,192,3.5,3.5,33,0.00,CLR,,0.00,WeatherDisplay:10.37,2013-07-17 15:34:00,
2013-07-17 08:39:00,76.6,44.5,30.05,SSW,192,3.5,3.5,32,0.00,CLR,,0.00,WeatherDisplay:10.37,2013-07-17 15:39:00,
2013-07-17 08:44:00,77.1,45.0,30.05,SSW,192,2.3,2.3,32,0.00,CLR,,0.00,WeatherDisplay:10.37,2013-07-17 15:44:00,
2013-07-17 08:49:00,77.6,44.6,30.05,SSW,192,3.5,3.5,31,0.00,CLR,,0.00,WeatherDisplay:10.37,2013-07-17 15:49:00,
2013-07-17 08:54:00,78.1,44.1,30.05,SSW,192,0.0,0.0,30,0.00,CLR,,0.00,WeatherDisplay:10.37,2013-07-17 15:54:00,
2013-07-17 08:59:00,78.6,43.7,30.05,SSW,192,0.0,0.0,29,0.00,CLR,,0.00,WeatherDisplay:10.37,2013-07-17 15:59:00,
2013-07-17 09:04:00,79.0,43.1,30.05,SSW,192,0.0,0.0,28,0.00,CLR,,0.00,WeatherDisplay:10.37,2013-07-17 16:04:00,
2013-07-17 09:09:00,78.8,42.0,30.05,SSW,192,3.5,3.5,27,0.00,CLR,,0.00,WeatherDisplay:10.37,2013-07-17 16:09:00,
2013-07-17 09:14:00,79.3,43.4,30.05,SSW,192,0.0,0.0,28,0.00,CLR,,0.00,WeatherDisplay:10.37,2013-07-17 16:14:00,
2013-07-17 09:19:00,79.9,42.9,30.05,SSW,192,1.2,0.0,27,0.00,CLR,,0.00,WeatherDisplay:10.37,2013-07-17 16:19:00,
2013-07-17 09:24:00,81.0,43.9,30.05,SSW,192,5.8,5.8,27,0.00,CLR,,0.00,WeatherDisplay:10.37,2013-07-17 16:24:00,
2013-07-17 09:29:00,81.6,43.4,30.05,SSW,192,4.6,4.6,26,0.00,CLR,,0.00,WeatherDisplay:10.37,2013-07-17 16:29:00,
2013-07-17 09:34:00,81.6,43.4,30.05,SSW,192,4.0,4.0,26,0.00,CLR,,0.00,WeatherDisplay:10.37,2013-07-17 16:34:00,
2013-07-17 09:39:00,81.9,43.6,30.05,SSW,192,4.6,4.6,26,0.00,CLR,,0.00,WeatherDisplay:10.37,2013-07-17 16:39:00,
2013-07-17 09:44:00,82.3,43.0,30.05,SSW,192,4.6,4.6,25,0.00,CLR,,0.00,WeatherDisplay:10.37,2013-07-17 16:44:00,
2013-07-17 09:49:00,82.5,42.1,30.05,SSW,192,3.5,3.5,24,0.00,CLR,,0.00,WeatherDisplay:10.37,2013-07-17 16:49:00,
2013-07-17 09:54:00,83.0,41.4,30.05,SSW,192,0.0,0.0,23,0.00,CLR,,0.00,WeatherDisplay:10.37,2013-07-17 16:54:00,
2013-07-17 09:59:00,83.8,42.0,30.05,SSW,192,4.6,4.6,23,0.00,CLR,,0.00,WeatherDisplay:10.37,2013-07-17 16:59:00,
2013-07-17 10:04:00,84.0,41.1,30.05,SSW,192,2.3,2.3,22,0.00,CLR,,0.00,WeatherDisplay:10.37,2013-07-17 17:04:00,
2013-07-17 10:09:00,84.5,40.3,30.05,SSW,192,4.6,4.6,21,0.00,CLR,,0.00,WeatherDisplay:10.37,2013-07-17 17:09:00,
2013-07-17 10:14:00,84.7,40.4,30.05,SSW,192,3.5,0.0,21,0.00,CLR,,0.00,WeatherDisplay:10.37,2013-07-17 17:14:00,
2013-07-17 10:19:00,84.9,39.3,30.05,SSW,192,6.9,6.9,20,0.00,CLR,,0.00,WeatherDisplay:10.37,2013-07-17 17:19:00,
2013-07-17 10:24:00,85.1,39.5,30.05,SSW,192,3.5,3.5,20,0.00,CLR,,0.00,WeatherDisplay:10.37,2013-07-17 17:24:00,
2013-07-17 10:29:00,85.3,39.7,30.05,SSW,192,6.0,6.0,20,0.00,CLR,,0.00,WeatherDisplay:10.37,2013-07-17 17:29:00,
2013-07-17 10:34:00,85.3,39.7,30.05,SSW,192,5.8,5.8,20,0.00,CLR,,0.00,WeatherDisplay:10.37,2013-07-17 17:34:00,
2013-07-17 10:39:00,85.8,40.1,30.05,SSW,192,10.4,10.4,20,0.00,CLR,,0.00,WeatherDisplay:10.37,2013-07-17 17:39:00,
2013-07-17 10:44:00,86.1,40.3,30.05,SSW,192,5.8,5.8,20,0.00,CLR,,0.00,WeatherDisplay:10.37,2013-07-17 17:44:00,
2013-07-17 10:49:00,86.6,40.7,30.05,SSW,192,5.8,5.8,20,0.00,CLR,,0.00,WeatherDisplay:10.37,2013-07-17 17:49:00,
2013-07-17 10:54:00,87.3,41.3,30.05,SSW,192,5.8,5.8,20,0.00,CLR,,0.00,WeatherDisplay:10.37,2013-07-17 17:54:00,
2013-07-17 10:59:00,87.4,40.1,30.05,SSW,192,6.9,6.9,19,0.00,CLR,,0.00,WeatherDisplay:10.37,2013-07-17 17:59:00,
2013-07-17 11:04:00,87.3,40.0,30.05,SSW,192,5.8,5.8,19,0.00,CLR,,0.00,WeatherDisplay:10.37,2013-07-17 18:04:00,
2013-07-17 11:09:00,87.9,40.5,30.04,SSW,192,6.9,6.9,19,0.00,CLR,,0.00,WeatherDisplay:10.37,2013-07-17 18:09:00,
2013-07-17 11:14:00,89.1,41.5,30.05,SSW,192,1.2,0.0,19,0.00,CLR,,0.00,WeatherDisplay:10.37,2013-07-17 18:14:00,
2013-07-17 11:19:00,89.5,40.4,30.04,SSW,192,5.8,5.8,18,0.00,CLR,,0.00,WeatherDisplay:10.37,2013-07-17 18:19:00,
2013-07-17 11:24:00,89.5,40.4,30.04,SSW,192,1.2,1.2,18,0.00,CLR,,0.00,WeatherDisplay:10.37,2013-07-17 18:24:00,
2013-07-17 11:29:00,90.0,40.8,30.04,SSW,192,1.2,1.2,18,0.00,CLR,,0.00,WeatherDisplay:10.37,2013-07-17 18:29:00,
2013-07-17 11:35:00,90.8,41.4,30.04,SSW,192,0.0,0.0,18,0.00,CLR,,0.00,WeatherDisplay:10.37,2013-07-17 18:35:00,
2013-07-17 11:40:00,91.6,42.1,30.04,SSW,192,2.0,2.0,18,0.00,CLR,,0.00,WeatherDisplay:10.37,2013-07-17 18:40:00,
2013-07-17 11:45:00,91.7,42.2,30.04,SSW,192,3.5,3.5,18,0.00,CLR,,0.00,WeatherDisplay:10.37,2013-07-17 18:45:00,
2013-07-17 11:50:00,91.3,40.4,30.04,SSW,192,4.6,4.6,17,0.00,CLR,,0.00,WeatherDisplay:10.37,2013-07-17 18:50:00,
2013-07-17 11:55:00,90.5,41.2,30.04,SSW,192,3.5,3.5,18,0.00,CLR,,0.00,WeatherDisplay:10.37,2013-07-17 18:55:00,
2013-07-17 12:00:00,90.0,40.8,30.04,SSW,192,8.1,8.1,18,0.00,CLR,,0.00,WeatherDisplay:10.37,2013-07-17 19:00:00,
2013-07-17 12:05:00,89.7,40.6,30.04,SSW,192,4.6,0.0,18,0.00,CLR,,0.00,WeatherDisplay:10.37,2013-07-17 19:05:00,
2013-07-17 12:10:00,90.3,41.0,30.04,SSW,192,0.0,0.0,18,0.00,CLR,,0.00,WeatherDisplay:10.37,2013-07-17 19:10:00,
2013-07-17 12:15:00,90.7,41.4,30.04,SSW,192,5.8,5.8,18,0.00,CLR,,0.00,WeatherDisplay:10.37,2013-07-17 19:15:00,
2013-07-17 12:20:00,90.7,41.4,30.04,SSW,192,3.5,3.5,18,0.00,CLR,,0.00,WeatherDisplay:10.37,2013-07-17 19:20:00,
2013-07-17 12:25:00,91.3,41.9,30.04,SSW,192,6.0,6.0,18,0.00,CLR,,0.00,WeatherDisplay:10.37,2013-07-17 19:25:00,
2013-07-17 12:30:00,91.0,41.6,30.04,SSW,192,5.8,5.8,18,0.00,CLR,,0.00,WeatherDisplay:10.37,2013-07-17 19:30:00,
2013-07-17 12:35:00,91.5,40.5,30.04,SSW,192,3.5,3.5,17,0.00,CLR,,0.00,WeatherDisplay:10.37,2013-07-17 19:35:00,
2013-07-17 12:40:00,91.7,42.2,30.04,SSW,192,3.5,3.5,18,0.00,CLR,,0.00,WeatherDisplay:10.37,2013-07-17 19:40:00,
2013-07-17 12:45:00,92.2,41.1,30.04,SSW,192,3.5,3.5,17,0.00,CLR,,0.00,WeatherDisplay:10.37,2013-07-17 19:45:00,
2013-07-17 12:50:00,92.3,41.2,30.04,SSW,192,2.3,2.3,17,0.00,CLR,,0.00,WeatherDisplay:10.37,2013-07-17 19:50:00,
2013-07-17 12:55:00,92.3,41.2,30.03,SSW,192,0.0,0.7,17,0.00,CLR,,0.00,WeatherDisplay:10.37,2013-07-17 19:55:00,
2013-07-17 13:00:00,93.2,40.3,30.03,SSW,192,5.8,5.8,16,0.00,CLR,,0.00,WeatherDisplay:10.37,2013-07-17 20:00:00,
2013-07-17 13:05:00,92.7,39.9,30.03,SSW,192,4.6,4.6,16,0.00,CLR,,0.00,WeatherDisplay:10.37,2013-07-17 20:05:00,
2013-07-17 13:10:00,92.7,39.9,30.03,SSW,192,3.5,3.5,16,0.00,CLR,,0.00,WeatherDisplay:10.37,2013-07-17 20:10:00,
2013-07-17 13:15:00,92.9,40.1,30.03,SSW,192,3.5,3.5,16,0.00,CLR,,0.00,WeatherDisplay:10.37,2013-07-17 20:15:00,
2013-07-17 13:20:00,92.9,40.1,30.03,SSW,192,3.5,3.5,16,0.00,CLR,,0.00,WeatherDisplay:10.37,2013-07-17 20:20:00,
2013-07-17 13:25:00,94.1,41.1,30.03,SSW,192,3.5,3.5,16,0.00,CLR,,0.00,WeatherDisplay:10.37,2013-07-17 20:25:00,
2013-07-17 13:30:00,94.5,41.4,30.02,SSW,192,6.0,6.0,16,0.00,CLR,,0.00,WeatherDisplay:10.37,2013-07-17 20:30:00,
2013-07-17 13:35:00,94.7,41.5,30.02,SSW,192,3.5,3.5,16,0.00,CLR,,0.00,WeatherDisplay:10.37,2013-07-17 20:35:00,
2013-07-17 13:40:00,95.1,40.2,30.02,SSW,192,5.0,5.0,15,0.00,CLR,,0.00,WeatherDisplay:10.37,2013-07-17 20:40:00,
2013-07-17 13:45:00,95.5,38.7,30.02,SSW,192,8.0,8.0,14,0.00,CLR,,0.00,WeatherDisplay:10.37,2013-07-17 20:45:00,
2013-07-17 13:50:00,95.2,38.5,30.02,SSW,192,9.2,9.2,14,0.00,CLR,,0.00,WeatherDisplay:10.37,2013-07-17 20:50:00,
2013-07-17 13:55:00,94.7,38.1,30.02,SSW,192,11.0,11.0,14,0.00,CLR,,0.00,WeatherDisplay:10.37,2013-07-17 20:55:00,
2013-07-17 14:00:00,94.3,37.8,30.01,SSW,192,4.6,4.6,14,0.00,CLR,,0.00,WeatherDisplay:10.37,2013-07-17 21:00:00,
2013-07-17 14:05:00,95.2,38.5,30.01,SSW,192,6.9,6.9,14,0.00,CLR,,0.00,WeatherDisplay:10.37,2013-07-17 21:05:00,
2013-07-17 14:10:00,95.1,36.5,30.01,SSW,192,11.5,11.5,13,0.00,CLR,,0.00,WeatherDisplay:10.37,2013-07-17 21:10:00,
2013-07-17 14:15:00,95.6,38.8,30.01,SSW,192,8.0,8.0,14,0.00,CLR,,0.00,WeatherDisplay:10.37,2013-07-17 21:15:00,
2013-07-17 14:20:00,95.8,39.0,30.01,SSW,192,3.5,3.5,14,0.00,CLR,,0.00,WeatherDisplay:10.37,2013-07-17 21:20:00,
2013-07-17 14:25:00,96.1,37.3,30.01,SSW,192,6.9,6.9,13,0.00,CLR,,0.00,WeatherDisplay:10.37,2013-07-17 21:25:00,
2013-07-17 14:30:00,96.5,37.6,30.01,SSW,192,3.5,3.6,13,0.00,CLR,,0.00,WeatherDisplay:10.37,2013-07-17 21:30:00,
2013-07-17 14:35:00,96.5,37.6,30.00,SSW,192,7.0,7.0,13,0.00,CLR,,0.00,WeatherDisplay:10.37,2013-07-17 21:35:00,
2013-07-17 14:40:00,96.3,37.5,30.00,SSW,192,10.4,10.4,13,0.00,CLR,,0.00,WeatherDisplay:10.37,2013-07-17 21:40:00,
2013-07-17 14:45:00,97.1,38.1,30.00,SSW,192,16.0,16.0,13,0.00,CLR,,0.00,WeatherDisplay:10.37,2013-07-17 21:45:00,
2013-07-17 14:50:00,97.3,36.2,30.00,SSW,192,6.0,6.0,12,0.00,CLR,,0.00,WeatherDisplay:10.37,2013-07-17 21:50:00,
2013-07-17 14:55:00,98.0,36.7,30.00,SSW,192,10.4,10.4,12,0.00,CLR,,0.00,WeatherDisplay:10.37,2013-07-17 21:55:00,
2013-07-17 15:00:00,98.2,36.9,30.00,SSW,192,11.5,11.5,12,0.00,CLR,,0.00,WeatherDisplay:10.37,2013-07-17 22:00:00,
2013-07-17 15:05:00,97.3,38.2,30.00,SSW,192,4.6,4.6,13,0.00,CLR,,0.00,WeatherDisplay:10.37,2013-07-17 22:05:00,
2013-07-17 15:10:00,97.8,36.6,30.00,SSW,192,4.0,4.0,12,0.00,CLR,,0.00,WeatherDisplay:10.37,2013-07-17 22:10:00,
2013-07-17 15:15:00,98.6,37.2,30.00,SSW,192,5.8,5.8,12,0.00,CLR,,0.00,WeatherDisplay:10.37,2013-07-17 22:15:00,
2013-07-17 15:20:00,98.5,37.1,30.00,SSW,192,6.9,6.9,12,0.00,CLR,,0.00,WeatherDisplay:10.37,2013-07-17 22:20:00,
2013-07-17 15:25:00,99.0,37.5,29.99,SSW,192,6.9,6.9,12,0.00,CLR,,0.00,WeatherDisplay:10.37,2013-07-17 22:25:00,
2013-07-17 15:30:00,98.9,37.4,29.99,SSW,192,3.5,3.5,12,0.00,CLR,,0.00,WeatherDisplay:10.37,2013-07-17 22:30:00,
2013-07-17 15:35:00,98.8,37.4,29.99,SSW,192,5.0,5.0,12,0.00,CLR,,0.00,WeatherDisplay:10.37,2013-07-17 22:35:00,
2013-07-17 15:40:00,98.7,37.3,29.99,SSW,192,5.8,5.8,12,0.00,CLR,,0.00,WeatherDisplay:10.37,2013-07-17 22:40:00,
2013-07-17 15:45:00,98.2,38.9,29.99,SSW,192,10.4,10.4,13,0.00,CLR,,0.00,WeatherDisplay:10.37,2013-07-17 22:45:00,
2013-07-17 15:50:00,97.6,38.5,29.99,SSW,192,12.7,12.7,13,0.00,CLR,,0.00,WeatherDisplay:10.37,2013-07-17 22:50:00,
2013-07-17 15:55:00,98.2,38.9,29.98,SSW,192,10.0,10.0,13,0.00,CLR,,0.00,WeatherDisplay:10.37,2013-07-17 22:55:00,
2013-07-17 16:00:00,98.4,37.1,29.98,SSW,192,10.0,10.0,12,0.00,CLR,,0.00,WeatherDisplay:10.37,2013-07-17 23:00:00,
2013-07-17 16:05:00,98.6,39.3,29.98,SSW,192,13.8,13.8,13,0.00,CLR,,0.00,WeatherDisplay:10.37,2013-07-17 23:05:00,
2013-07-17 16:10:00,98.2,38.9,29.98,SSW,192,12.7,12.7,13,0.00,CLR,,0.00,WeatherDisplay:10.37,2013-07-17 23:10:00,
2013-07-17 16:15:00,97.9,38.7,29.98,SSW,192,9.2,9.2,13,0.00,CLR,,0.00,WeatherDisplay:10.37,2013-07-17 23:15:00,
2013-07-17 16:20:00,97.7,38.5,29.98,SSW,192,15.0,15.0,13,0.00,CLR,,0.00,WeatherDisplay:10.37,2013-07-17 23:20:00,
2013-07-17 16:25:00,97.8,40.5,29.98,SSW,192,19.6,19.6,14,0.00,CLR,,0.00,WeatherDisplay:10.37,2013-07-17 23:25:00,
2013-07-17 16:30:00,97.8,40.5,29.98,SSW,192,18.4,18.4,14,0.00,CLR,,0.00,WeatherDisplay:10.37,2013-07-17 23:30:00,
2013-07-17 16:35:00,98.1,40.8,29.98,SSW,192,18.0,18.0,14,0.00,CLR,,0.00,WeatherDisplay:10.37,2013-07-17 23:35:00,
2013-07-17 16:40:00,97.5,40.3,29.98,SSW,192,21.9,21.9,14,0.00,CLR,,0.00,WeatherDisplay:10.37,2013-07-17 23:40:00,
2013-07-17 16:45:00,96.8,41.5,29.98,SSW,192,17.3,17.3,15,0.00,CLR,,0.00,WeatherDisplay:10.37,2013-07-17 23:45:00,
2013-07-17 16:50:00,96.9,39.8,29.98,SSW,192,19.6,19.6,14,0.00,CLR,,0.00,WeatherDisplay:10.37,2013-07-17 23:50:00,
2013-07-17 16:55:00,97.1,41.8,29.98,SSW,192,18.0,18.0,15,0.00,CLR,,0.00,WeatherDisplay:10.37,2013-07-17 23:55:00,
2013-07-17 17:00:00,96.9,41.6,29.98,SSW,192,15.0,15.0,15,0.00,CLR,,0.00,WeatherDisplay:10.37,2013-07-18 00:00:00,
2013-07-17 17:05:00,97.3,40.1,29.98,SSW,192,16.1,16.1,14,0.00,CLR,,0.00,WeatherDisplay:10.37,2013-07-18 00:05:00,
2013-07-17 17:10:00,96.9,39.8,29.98,SSW,192,19.6,19.6,14,0.00,CLR,,0.00,WeatherDisplay:10.37,2013-07-18 00:10:00,
2013-07-17 17:15:00,96.3,39.4,29.97,SSW,192,21.9,21.9,14,0.00,CLR,,0.00,WeatherDisplay:10.37,2013-07-18 00:15:00,
2013-07-17 17:20:00,95.9,39.0,29.97,SSW,192,19.6,19.6,14,0.00,CLR,,0.00,WeatherDisplay:10.37,2013-07-18 00:20:00,
2013-07-17 17:25:00,95.6,38.8,29.97,SSW,192,18.4,18.4,14,0.00,CLR,,0.00,WeatherDisplay:10.37,2013-07-18 00:25:00,
2013-07-17 17:30:00,95.8,39.0,29.97,SSW,192,19.6,19.6,14,0.00,CLR,,0.00,WeatherDisplay:10.37,2013-07-18 00:30:00,
2013-07-17 17:35:00,95.8,39.0,29.97,SSW,192,18.0,18.0,14,0.00,CLR,,0.00,WeatherDisplay:10.37,2013-07-18 00:35:00,
2013-07-17 17:40:00,95.8,39.0,29.97,SSW,192,19.6,19.6,14,0.00,CLR,,0.00,WeatherDisplay:10.37,2013-07-18 00:40:00,
2013-07-17 17:45:00,95.8,39.0,29.97,SSW,192,19.6,19.6,14,0.00,CLR,,0.00,WeatherDisplay:10.37,2013-07-18 00:45:00,
2013-07-17 17:50:00,96.1,39.2,29.97,SSW,192,18.4,18.4,14,0.00,CLR,,0.00,WeatherDisplay:10.37,2013-07-18 00:50:00,
2013-07-17 17:55:00,95.8,39.0,29.97,SSW,192,18.4,18.4,14,0.00,CLR,,0.00,WeatherDisplay:10.37,2013-07-18 00:55:00,
2013-07-17 18:00:00,95.7,40.7,29.97,SSW,192,16.1,16.1,15,0.00,CLR,,0.00,WeatherDisplay:10.37,2013-07-18 01:00:00,
2013-07-17 18:05:00,95.9,40.8,29.97,SSW,192,18.4,18.4,15,0.00,CLR,,0.00,WeatherDisplay:10.37,2013-07-18 01:05:00,
2013-07-17 18:10:00,95.8,39.0,29.97,SSW,192,21.9,21.9,14,0.00,CLR,,0.00,WeatherDisplay:10.37,2013-07-18 01:10:00,
2013-07-17 18:15:00,95.2,40.3,29.97,SSW,192,16.1,16.1,15,0.00,CLR,,0.00,WeatherDisplay:10.37,2013-07-18 01:15:00,
2013-07-17 18:20:00,95.0,40.1,29.97,SSW,192,18.4,18.4,15,0.00,CLR,,0.00,WeatherDisplay:10.37,2013-07-18 01:20:00,
2013-07-17 18:25:00,94.4,39.6,29.97,SSW,192,20.7,20.7,15,0.00,CLR,,0.00,WeatherDisplay:10.37,2013-07-18 01:25:00,
2013-07-17 18:30:00,94.0,39.3,29.97,SSW,192,19.6,19.6,15,0.00,CLR,,0.00,WeatherDisplay:10.37,2013-07-18 01:30:00,
2013-07-17 18:35:00,93.7,39.1,29.98,SSW,192,20.7,20.7,15,0.00,CLR,,0.00,WeatherDisplay:10.37,2013-07-18 01:35:00,
2013-07-17 18:40:00,93.5,38.9,29.98,SSW,192,20.0,20.0,15,0.00,CLR,,0.00,WeatherDisplay:10.37,2013-07-18 01:40:00,
2013-07-17 18:45:00,93.3,38.8,29.98,SSW,192,16.1,16.1,15,0.00,CLR,,0.00,WeatherDisplay:10.37,2013-07-18 01:45:00,
2013-07-17 18:50:00,92.9,38.4,29.98,SSW,192,20.7,20.7,15,0.00,CLR,,0.00,WeatherDisplay:10.37,2013-07-18 01:50:00,
2013-07-17 18:55:00,92.7,38.3,29.98,SSW,192,20.0,20.0,15,0.00,CLR,,0.00,WeatherDisplay:10.37,2013-07-18 01:55:00,
2013-07-17 19:00:00,92.5,38.1,29.98,SSW,192,18.4,18.4,15,0.00,CLR,,0.00,WeatherDisplay:10.37,2013-07-18 02:00:00,
2013-07-17 19:05:00,92.3,38.0,29.98,SSW,192,16.1,16.1,15,0.00,CLR,,0.00,WeatherDisplay:10.37,2013-07-18 02:05:00,
2013-07-17 19:10:00,91.9,37.6,29.98,SSW,192,24.2,24.2,15,0.00,CLR,,0.00,WeatherDisplay:10.37,2013-07-18 02:10:00,
2013-07-17 19:15:00,91.6,37.4,29.98,SSW,192,21.9,21.9,15,0.00,CLR,,0.00,WeatherDisplay:10.37,2013-07-18 02:15:00,
2013-07-17 19:20:00,91.2,37.1,29.98,SSW,192,18.4,18.4,15,0.00,CLR,,0.00,WeatherDisplay:10.37,2013-07-18 02:20:00,
2013-07-17 19:25:00,90.9,36.8,29.99,SSW,192,18.4,18.4,15,0.00,CLR,,0.00,WeatherDisplay:10.37,2013-07-18 02:25:00,
2013-07-17 19:30:00,90.5,36.5,29.99,SSW,192,19.6,19.6,15,0.00,CLR,,0.00,WeatherDisplay:10.37,2013-07-18 02:30:00,
2013-07-17 19:35:00,90.1,36.2,29.99,SSW,192,19.6,19.6,15,0.00,CLR,,0.00,WeatherDisplay:10.37,2013-07-18 02:35:00,
2013-07-17 19:40:00,89.6,35.8,29.99,SSW,192,13.8,13.8,15,0.00,CLR,,0.00,WeatherDisplay:10.37,2013-07-18 02:40:00,
2013-07-17 19:45:00,89.0,38.5,29.99,SSW,192,18.4,18.4,17,0.00,CLR,,0.00,WeatherDisplay:10.37,2013-07-18 02:45:00,
2013-07-17 19:50:00,88.2,36.3,29.99,SSW,192,17.3,17.3,16,0.00,CLR,,0.00,WeatherDisplay:10.37,2013-07-18 02:50:00,
2013-07-17 19:55:00,87.6,37.4,29.99,SSW,192,19.6,19.6,17,0.00,CLR,,0.00,WeatherDisplay:10.37,2013-07-18 02:55:00,
2013-07-17 20:00:00,86.8,39.6,30.00,SSW,192,20.0,20.0,19,0.00,CLR,,0.00,WeatherDisplay:10.37,2013-07-18 03:00:00,
2013-07-17 20:05:00,85.9,38.8,30.00,SSW,192,16.1,16.1,19,0.00,CLR,,0.00,WeatherDisplay:10.37,2013-07-18 03:05:00,
2013-07-17 20:10:00,85.2,38.3,30.00,SSW,192,17.3,17.3,19,0.00,CLR,,0.00,WeatherDisplay:10.37,2013-07-18 03:10:00,
2013-07-17 20:15:00,84.6,39.1,30.00,SSW,192,13.0,13.0,20,0.00,CLR,,0.00,WeatherDisplay:10.37,2013-07-18 03:15:00,
2013-07-17 20:20:00,84.1,38.7,30.00,SSW,192,13.8,13.8,20,0.00,CLR,,0.00,WeatherDisplay:10.37,2013-07-18 03:20:00,
2013-07-17 20:25:00,83.6,38.3,30.00,SSW,192,16.1,16.1,20,0.00,CLR,,0.00,WeatherDisplay:10.37,2013-07-18 03:25:00,
2013-07-17 20:30:00,83.0,39.0,30.00,SSW,192,12.0,12.0,21,0.00,CLR,,0.00,WeatherDisplay:10.37,2013-07-18 03:30:00,
2013-07-17 20:35:00,82.6,39.9,30.00,SSW,192,17.3,17.3,22,0.00,CLR,,0.00,WeatherDisplay:10.37,2013-07-18 03:35:00,
2013-07-17 20:40:00,82.1,39.5,30.00,SSW,192,13.8,13.8,22,0.00,CLR,,0.00,WeatherDisplay:10.37,2013-07-18 03:40:00,
2013-07-17 20:45:00,81.6,40.2,30.01,SSW,192,12.7,12.7,23,0.00,CLR,,0.00,WeatherDisplay:10.37,2013-07-18 03:45:00,
2013-07-17 20:50:00,81.1,39.8,30.01,SSW,192,10.4,10.4,23,0.00,CLR,,0.00,WeatherDisplay:10.37,2013-07-18 03:50:00,
2013-07-17 20:55:00,80.7,40.5,30.01,SSW,192,13.8,13.8,24,0.00,CLR,,0.00,WeatherDisplay:10.37,2013-07-18 03:55:00,
2013-07-17 21:00:00,80.4,40.3,30.01,SSW,192,11.5,11.5,24,0.00,CLR,,0.00,WeatherDisplay:10.37,2013-07-18 04:00:00,
2013-07-17 21:01:00,80.3,41.3,30.01,SSW,192,11.5,11.5,25,0.00,CLR,,0.00,WeatherDisplay:10.37,2013-07-18 04:01:00,
2013-07-17 21:02:00,80.3,41.3,30.01,SSW,192,11.5,11.5,25,0.00,CLR,,0.00,WeatherDisplay:10.37,2013-07-18 04:02:00,
2013-07-17 21:03:00,80.2,41.2,30.01,SSW,192,11.5,11.5,25,0.00,CLR,,0.00,WeatherDisplay:10.37,2013-07-18 04:03:00,
2013-07-17 21:08:00,79.9,40.9,30.02,SSW,192,12.7,12.7,25,0.00,CLR,,0.00,WeatherDisplay:10.37,2013-07-18 04:08:00,
2013-07-17 21:13:00,79.7,40.8,30.02,SSW,192,11.5,11.5,25,0.00,CLR,,0.00,WeatherDisplay:10.37,2013-07-18 04:13:00,
2013-07-17 21:18:00,79.5,41.6,30.02,SSW,192,12.0,12.0,26,0.00,CLR,,0.00,WeatherDisplay:10.37,2013-07-18 04:18:00,
2013-07-17 21:23:00,79.2,42.3,30.02,SSW,192,10.4,10.4,27,0.00,CLR,,0.00,WeatherDisplay:10.37,2013-07-18 04:23:00,
2013-07-17 21:28:00,78.8,42.0,30.02,SSW,192,9.2,9.2,27,0.00,CLR,,0.00,WeatherDisplay:10.37,2013-07-18 04:28:00,
2013-07-17 21:33:00,78.6,41.8,30.02,SSW,192,8.1,8.1,27,0.00,CLR,,0.00,WeatherDisplay:10.37,2013-07-18 04:33:00,
2013-07-17 21:38:00,78.4,41.6,30.02,SSW,192,10.4,10.4,27,0.00,CLR,,0.00,WeatherDisplay:10.37,2013-07-18 04:38:00,
2013-07-17 21:43:00,78.2,41.5,30.02,SSW,192,10.4,10.4,27,0.00,CLR,,0.00,WeatherDisplay:10.37,2013-07-18 04:43:00,
2013-07-17 21:48:00,78.1,42.3,30.03,SSW,192,6.9,6.9,28,0.00,CLR,,0.00,WeatherDisplay:10.37,2013-07-18 04:48:00,
2013-07-17 21:53:00,77.9,42.2,30.03,SSW,192,9.2,9.2,28,0.00,CLR,,0.00,WeatherDisplay:10.37,2013-07-18 04:53:00,
2013-07-17 21:58:00,77.6,42.8,30.03,SSW,192,9.2,9.2,29,0.00,CLR,,0.00,WeatherDisplay:10.37,2013-07-18 04:58:00,
2013-07-17 22:03:00,77.4,42.6,30.03,SSW,192,10.4,10.4,29,0.00,CLR,,0.00,WeatherDisplay:10.37,2013-07-18 05:03:00,
2013-07-17 22:08:00,77.2,43.4,30.03,SSW,192,10.4,10.4,30,0.00,CLR,,0.00,WeatherDisplay:10.37,2013-07-18 05:08:00,
2013-07-17 22:13:00,76.9,44.0,30.03,SSW,192,10.4,10.4,31,0.00,CLR,,0.00,WeatherDisplay:10.37,2013-07-18 05:13:00,
2013-07-17 22:18:00,76.6,43.7,30.02,SSW,192,7.0,7.0,31,0.00,CLR,,0.00,WeatherDisplay:10.37,2013-07-18 05:18:00,
2013-07-17 22:23:00,76.4,43.5,30.02,SSW,192,5.8,5.8,31,0.00,CLR,,0.00,WeatherDisplay:10.37,2013-07-18 05:23:00,
2013-07-17 22:28:00,76.2,44.2,30.03,SSW,192,9.2,9.2,32,0.00,CLR,,0.00,WeatherDisplay:10.37,2013-07-18 05:28:00,
2013-07-17 22:33:00,76.1,44.9,30.03,SSW,192,5.8,5.8,33,0.00,CLR,,0.00,WeatherDisplay:10.37,2013-07-18 05:33:00,
2013-07-17 22:38:00,76.0,44.8,30.03,SSW,192,6.9,6.9,33,0.00,CLR,,0.00,WeatherDisplay:10.37,2013-07-18 05:38:00,
2013-07-17 22:43:00,75.7,45.3,30.03,SSW,192,5.8,5.8,34,0.00,CLR,,0.00,WeatherDisplay:10.37,2013-07-18 05:43:00,
2013-07-17 22:48:00,75.3,45.7,30.03,SSW,192,4.6,4.6,35,0.00,CLR,,0.00,WeatherDisplay:10.37,2013-07-18 05:48:00,
2013-07-17 22:53:00,75.0,45.5,30.03,SSW,192,5.8,5.8,35,0.00,CLR,,0.00,WeatherDisplay:10.37,2013-07-18 05:53:00,
2013-07-17 22:58:00,74.8,46.1,30.03,SSW,192,5.8,5.8,36,0.00,CLR,,0.00,WeatherDisplay:10.37,2013-07-18 05:58:00,
2013-07-17 23:03:00,74.6,45.9,30.03,SSW,192,5.0,5.0,36,0.00,CLR,,0.00,WeatherDisplay:10.37,2013-07-18 06:03:00,
2013-07-17 23:08:00,74.6,46.6,30.03,SSW,192,5.8,5.8,37,0.00,CLR,,0.00,WeatherDisplay:10.37,2013-07-18 06:08:00,
2013-07-17 23:13:00,74.7,46.7,30.03,SSW,192,5.0,5.0,37,0.00,CLR,,0.00,WeatherDisplay:10.37,2013-07-18 06:13:00,
2013-07-17 23:18:00,74.5,46.5,30.03,SSW,192,5.8,5.8,37,0.00,CLR,,0.00,WeatherDisplay:10.37,2013-07-18 06:18:00,
2013-07-17 23:23:00,74.3,46.3,30.03,SSW,192,5.0,5.0,37,0.00,CLR,,0.00,WeatherDisplay:10.37,2013-07-18 06:23:00,
2013-07-17 23:28:00,74.1,46.9,30.03,SSW,192,4.6,4.6,38,0.00,CLR,,0.00,WeatherDisplay:10.37,2013-07-18 06:28:00,
2013-07-17 23:33:00,73.9,46.7,30.03,SSW,192,0.0,0.0,38,0.00,CLR,,0.00,WeatherDisplay:10.37,2013-07-18 06:33:00,
2013-07-17 23:38:00,73.8,46.6,30.03,SSW,192,0.0,0.0,38,0.00,CLR,,0.00,WeatherDisplay:10.37,2013-07-18 06:38:00,
2013-07-17 23:43:00,73.7,46.5,30.03,SSW,192,0.0,0.0,38,0.00,CLR,,0.00,WeatherDisplay:10.37,2013-07-18 06:43:00,
2013-07-17 23:48:00,73.4,46.2,30.03,SSW,192,0.0,0.0,38,0.00,CLR,,0.00,WeatherDisplay:10.37,2013-07-18 06:48:00,
2013-07-17 23:53:00,73.1,46.0,30.02,SSW,192,3.5,3.5,38,0.00,CLR,,0.00,WeatherDisplay:10.37,2013-07-18 06:53:00,